Terminal Aerodrome Forecast
Issued by NWS Shreveport, LA

Home | Current Version | Previous Version | Text Only | Print | Product List | Glossary On
Versions: 1 2 3 4 5 6 7 8 9 10 11 12 13 14 15 16 17 18 19 20
000
FTUS44 KSHV 250500
TAFMLU
TAF
KMLU 250531Z 2506/2606 22004KT P6SM SKC
     FM250900 00000KT P6SM SKC
     FM251500 19004KT P6SM SKC
     FM252100 18011KT P6SM SKC=

USA.gov is the U.S. government's official web portal to all federal, state and local government web resources and services.